Time;durP1;ratioP1;P1;durP2;ratioP2;P2;SDS_P1;SDS_P2;PMS_P1;PMS_P2;Temp;Humidity;BMP_temperature;BMP_pressure;BME280_temperature;BME280_humidity;BME280_pressure;Samples;Min_cycle;Max_cycle;Signal;HPM_P1;HPM_P2
2021/04/23 00:01:44;;;;;;;7.78;5.40;;;;;;;;;;9997525;29;20430;-60
2021/04/23 00:06:43;;;;;;;7.10;5.75;;;;;;;;;;9998779;29;20084;-57
2021/04/23 00:11:45;;;;;;;6.25;5.20;;;;;;;;;;9998496;29;20079;-57
2021/04/23 00:16:42;;;;;;;6.22;4.03;;;;;;;;;;9998277;29;20526;-57
2021/04/23 00:21:40;;;;;;;5.75;3.10;;;;;;;;;;9998126;29;20122;-56
2021/04/23 00:26:38;;;;;;;5.55;3.50;;;;;;;;;;9998808;29;20074;-57
2021/04/23 00:31:37;;;;;;;4.57;3.22;;;;;;;;;;9997598;29;20071;-58
2021/04/23 00:36:34;;;;;;;3.80;3.40;;;;;;;;;;9997867;29;20055;-57
2021/04/23 00:41:33;;;;;;;3.25;2.92;;;;;;;;;;9999935;29;20036;-58
2021/04/23 00:46:32;;;;;;;4.95;3.15;;;;;;;;;;9999329;29;20074;-58
2021/04/23 00:51:32;;;;;;;11.77;3.50;;;;;;;;;;9997637;29;20079;-57
2021/04/23 00:56:32;;;;;;;11.02;5.72;;;;;;;;;;9999856;29;20080;-59
2021/04/23 01:01:30;;;;;;;14.30;10.05;;;;;;;;;;9999729;29;20044;-58
2021/04/23 01:06:29;;;;;;;12.85;9.77;;;;;;;;;;9998994;29;20088;-55
2021/04/23 01:11:27;;;;;;;10.70;7.78;;;;;;;;;;10003288;29;20063;-54
2021/04/23 01:16:25;;;;;;;16.73;10.05;;;;;;;;;;10006937;29;20079;-56
2021/04/23 01:21:24;;;;;;;13.63;9.20;;;;;;;;;;10006950;29;20048;-56
2021/04/23 01:26:23;;;;;;;10.75;9.00;;;;;;;;;;10006432;29;20061;-55
2021/04/23 01:31:22;;;;;;;12.35;8.68;;;;;;;;;;10005185;29;20079;-57
2021/04/23 01:36:20;;;;;;;13.45;8.40;;;;;;;;;;10006132;29;20079;-55
2021/04/23 01:41:19;;;;;;;11.25;10.05;;;;;;;;;;10006241;29;20040;-55
2021/04/23 01:46:16;;;;;;;11.32;8.32;;;;;;;;;;10004288;29;20094;-56
2021/04/23 01:51:15;;;;;;;8.32;7.20;;;;;;;;;;10005143;29;20087;-55
2021/04/23 01:56:12;;;;;;;9.05;6.78;;;;;;;;;;10005255;29;20465;-51
2021/04/23 02:01:10;;;;;;;7.90;5.63;;;;;;;;;;10005050;29;20044;-57
2021/04/23 02:06:09;;;;;;;8.45;4.93;;;;;;;;;;10005287;29;20075;-53
2021/04/23 02:11:08;;;;;;;6.95;4.55;;;;;;;;;;10005297;29;20080;-56
2021/04/23 02:16:06;;;;;;;8.25;4.80;;;;;;;;;;10004499;29;20110;-56
2021/04/23 02:21:04;;;;;;;5.55;4.80;;;;;;;;;;10003628;29;20044;-53
2021/04/23 02:26:03;;;;;;;5.47;3.83;;;;;;;;;;10003875;29;20537;-55
2021/04/23 02:31:03;;;;;;;8.80;4.65;;;;;;;;;;10002969;29;20083;-56
2021/04/23 02:36:00;;;;;;;17.13;9.52;;;;;;;;;;10004203;29;20082;-55
2021/04/23 02:40:59;;;;;;;14.90;9.75;;;;;;;;;;10003629;29;20549;-55
2021/04/23 02:45:56;;;;;;;19.83;9.48;;;;;;;;;;10003801;29;20076;-56
2021/04/23 02:50:55;;;;;;;12.07;9.10;;;;;;;;;;10003032;29;20086;-57
2021/04/23 02:55:52;;;;;;;10.30;7.35;;;;;;;;;;10003045;29;20084;-57
2021/04/23 03:00:51;;;;;;;8.52;7.72;;;;;;;;;;10002555;29;20076;-56
2021/04/23 03:05:49;;;;;;;8.80;6.82;;;;;;;;;;10002922;29;20067;-56
2021/04/23 03:10:47;;;;;;;10.93;6.30;;;;;;;;;;10001590;29;20080;-58
2021/04/23 03:15:45;;;;;;;6.43;4.97;;;;;;;;;;10002606;29;20083;-55
2021/04/23 03:20:44;;;;;;;6.22;4.47;;;;;;;;;;10001942;29;20056;-52
2021/04/23 03:25:43;;;;;;;9.73;5.95;;;;;;;;;;9999662;29;20079;-56
2021/04/23 03:30:41;;;;;;;12.13;8.73;;;;;;;;;;9997700;29;20090;-57
2021/04/23 03:35:41;;;;;;;10.65;8.23;;;;;;;;;;9999924;29;20119;-57
2021/04/23 03:40:40;;;;;;;16.23;9.77;;;;;;;;;;9999206;29;20552;-52
2021/04/23 03:45:38;;;;;;;19.52;13.18;;;;;;;;;;9997416;29;20075;-58
2021/04/23 03:50:36;;;;;;;14.20;10.73;;;;;;;;;;9998170;29;20076;-59
2021/04/23 03:55:35;;;;;;;12.43;10.02;;;;;;;;;;9998921;29;20087;-55
2021/04/23 04:00:41;;;;;;;22.95;13.57;;;;;;;;;;10391394;27;20890;-52
2021/04/23 04:05:38;;;;;;;13.43;10.57;;;;;;;;;;10391197;28;20047;-57
2021/04/23 04:10:36;;;;;;;13.98;9.50;;;;;;;;;;10391773;28;20506;-55
2021/04/23 04:15:34;;;;;;;13.48;9.57;;;;;;;;;;10391738;28;20102;-56
2021/04/23 04:20:34;;;;;;;15.93;10.77;;;;;;;;;;10391049;28;20495;-51
2021/04/23 04:25:36;;;;;;;11.65;9.40;;;;;;;;;;10391130;28;20040;-54
2021/04/23 04:30:33;;;;;;;12.52;10.32;;;;;;;;;;10389400;28;20071;-55
2021/04/23 04:35:31;;;;;;;16.77;8.93;;;;;;;;;;10389314;28;20069;-57
2021/04/23 04:40:29;;;;;;;14.38;10.02;;;;;;;;;;10390882;28;20075;-57
2021/04/23 04:45:28;;;;;;;11.45;7.90;;;;;;;;;;10390829;28;20063;-56
2021/04/23 04:50:27;;;;;;;17.85;9.95;;;;;;;;;;10390097;28;20051;-55
2021/04/23 04:55:25;;;;;;;11.98;9.40;;;;;;;;;;10387666;28;20079;-57
2021/04/23 05:00:25;;;;;;;96.40;63.65;;;;;;;;;;10387005;28;20102;-57
2021/04/23 05:05:22;;;;;;;152.52;109.32;;;;;;;;;;10388286;28;20086;-55
2021/04/23 05:10:20;;;;;;;52.38;35.70;;;;;;;;;;10371858;28;20036;-56
2021/04/23 05:15:17;;;;;;;138.43;112.97;;;;;;;;;;10361976;28;20060;-56
2021/04/23 05:20:17;;;;;;;40.88;31.33;;;;;;;;;;10361796;28;20082;-55
2021/04/23 05:25:16;;;;;;;30.83;24.98;;;;;;;;;;10361738;28;20071;-56
2021/04/23 05:30:15;;;;;;;22.23;19.05;;;;;;;;;;10361335;28;20086;-56
2021/04/23 05:35:13;;;;;;;24.27;21.65;;;;;;;;;;10361239;28;20386;-57
2021/04/23 05:40:13;;;;;;;23.77;16.08;;;;;;;;;;10360571;28;20505;-57
2021/04/23 05:45:13;;;;;;;19.75;14.07;;;;;;;;;;10360942;28;20044;-56
2021/04/23 05:50:12;;;;;;;14.07;12.60;;;;;;;;;;10360968;28;20087;-55
2021/04/23 05:55:13;;;;;;;21.88;19.27;;;;;;;;;;10360565;28;20043;-56
2021/04/23 06:00:12;;;;;;;18.13;14.68;;;;;;;;;;10359266;28;20099;-54
2021/04/23 06:05:11;;;;;;;18.10;14.77;;;;;;;;;;10359049;28;20052;-57
2021/04/23 06:10:10;;;;;;;18.08;15.75;;;;;;;;;;10359993;28;20079;-56
2021/04/23 06:15:09;;;;;;;22.48;17.30;;;;;;;;;;10358400;28;20512;-57
2021/04/23 06:20:08;;;;;;;21.90;17.38;;;;;;;;;;10358099;28;20091;-58
2021/04/23 06:25:07;;;;;;;18.17;14.98;;;;;;;;;;10359279;28;20087;-58
2021/04/23 06:30:06;;;;;;;19.85;16.65;;;;;;;;;;10357757;28;20044;-56
2021/04/23 06:35:05;;;;;;;21.63;18.08;;;;;;;;;;10359294;28;20082;-56
2021/04/23 06:40:03;;;;;;;18.65;15.85;;;;;;;;;;10358762;28;20485;-57
2021/04/23 06:45:05;;;;;;;17.25;14.02;;;;;;;;;;10347874;28;20041;-58
2021/04/23 06:50:05;;;;;;;19.98;17.80;;;;;;;;;;10316707;28;20077;-57
2021/04/23 06:55:03;;;;;;;22.77;19.67;;;;;;;;;;10319134;28;20045;-58
2021/04/23 07:00:01;;;;;;;17.67;15.93;;;;;;;;;;10314197;28;20076;-57
2021/04/23 07:04:58;;;;;;;39.65;29.98;;;;;;;;;;10316390;28;20056;-56
2021/04/23 07:09:56;;;;;;;21.42;16.98;;;;;;;;;;10315542;28;20079;-56
2021/04/23 07:14:54;;;;;;;20.02;17.90;;;;;;;;;;10316100;28;20041;-56
2021/04/23 07:19:52;;;;;;;19.58;16.67;;;;;;;;;;10315088;28;20511;-57
2021/04/23 07:24:49;;;;;;;19.27;13.98;;;;;;;;;;10314716;28;20059;-58
2021/04/23 07:29:47;;;;;;;17.08;15.27;;;;;;;;;;10314489;28;20076;-59
2021/04/23 07:34:46;;;;;;;15.57;13.60;;;;;;;;;;10315605;28;20055;-58
2021/04/23 07:39:43;;;;;;;19.65;16.02;;;;;;;;;;10315500;28;20072;-58
2021/04/23 07:44:40;;;;;;;21.58;16.38;;;;;;;;;;10315415;28;20466;-57
2021/04/23 07:49:38;;;;;;;18.00;13.40;;;;;;;;;;10315497;28;20056;-58
2021/04/23 07:54:49;;;;;;;15.93;14.30;;;;;;;;;;10315349;28;20048;-58
2021/04/23 07:59:46;;;;;;;18.50;15.48;;;;;;;;;;10314153;28;20072;-58
2021/04/23 08:04:43;;;;;;;20.23;17.13;;;;;;;;;;10315106;28;20490;-58
2021/04/23 08:09:41;;;;;;;19.60;17.58;;;;;;;;;;10314923;28;20107;-58
2021/04/23 08:14:39;;;;;;;17.48;15.55;;;;;;;;;;10314869;28;20076;-58
2021/04/23 08:19:37;;;;;;;18.25;16.13;;;;;;;;;;10314883;28;20076;-57
2021/04/23 08:24:34;;;;;;;15.23;13.73;;;;;;;;;;10314764;28;20068;-58
2021/04/23 08:29:32;;;;;;;16.58;14.90;;;;;;;;;;10314430;28;20561;-56
2021/04/23 08:34:30;;;;;;;25.70;19.75;;;;;;;;;;10314364;28;20535;-57
2021/04/23 08:39:27;;;;;;;12.57;11.27;;;;;;;;;;10314361;28;20075;-58
2021/04/23 08:44:25;;;;;;;13.65;10.90;;;;;;;;;;10316983;28;20040;-58
2021/04/23 08:49:22;;;;;;;17.88;15.02;;;;;;;;;;10321720;28;20083;-57
2021/04/23 08:54:21;;;;;;;16.35;11.45;;;;;;;;;;10321538;28;20036;-56
2021/04/23 08:59:18;;;;;;;17.38;13.95;;;;;;;;;;10320407;28;20068;-56
2021/04/23 09:04:15;;;;;;;15.50;12.57;;;;;;;;;;10321271;28;20040;-58
2021/04/23 09:09:14;;;;;;;13.02;11.27;;;;;;;;;;10321149;28;20497;-55
2021/04/23 09:14:13;;;;;;;11.05;8.82;;;;;;;;;;10320424;28;20049;-57
2021/04/23 09:19:19;;;;;;;16.75;12.35;;;;;;;;;;10320438;28;20071;-56
2021/04/23 09:24:20;;;;;;;18.55;15.32;;;;;;;;;;10320384;28;20478;-57
2021/04/23 09:29:26;;;;;;;24.05;18.92;;;;;;;;;;10320773;28;20079;-56
2021/04/23 09:34:24;;;;;;;21.90;12.25;;;;;;;;;;10320207;28;20041;-57
2021/04/23 09:39:22;;;;;;;17.38;15.27;;;;;;;;;;10319696;28;20084;-58
2021/04/23 09:44:27;;;;;;;12.85;10.60;;;;;;;;;;10319490;28;20047;-57
2021/04/23 09:49:24;;;;;;;12.85;11.43;;;;;;;;;;10318677;28;20524;-57
2021/04/23 09:54:23;;;;;;;14.65;11.85;;;;;;;;;;10316684;28;20040;-57
2021/04/23 09:59:21;;;;;;;16.20;13.02;;;;;;;;;;10318075;28;20083;-57
2021/04/23 10:04:20;;;;;;;19.92;15.27;;;;;;;;;;10318006;28;20037;-56
2021/04/23 10:09:18;;;;;;;18.85;13.50;;;;;;;;;;10317982;28;20088;-58
2021/04/23 10:14:16;;;;;;;19.38;13.30;;;;;;;;;;10318854;28;20051;-57
2021/04/23 10:19:14;;;;;;;16.58;12.65;;;;;;;;;;10316246;28;20080;-57
2021/04/23 10:24:12;;;;;;;19.27;13.00;;;;;;;;;;10317835;28;20068;-58
2021/04/23 10:29:11;;;;;;;13.50;10.68;;;;;;;;;;10317592;28;20071;-57
2021/04/23 10:34:09;;;;;;;9.25;8.13;;;;;;;;;;10317664;28;20036;-58
2021/04/23 10:39:07;;;;;;;12.18;7.68;;;;;;;;;;10317472;28;20076;-57
2021/04/23 10:44:07;;;;;;;11.10;7.68;;;;;;;;;;10317045;28;20498;-57
2021/04/23 10:49:05;;;;;;;16.92;10.68;;;;;;;;;;10316686;28;20482;-59
2021/04/23 10:54:12;;;;;;;12.85;10.55;;;;;;;;;;10316713;28;20040;-55
2021/04/23 10:59:26;;;;;;;13.48;11.38;;;;;;;;;;10315555;28;20083;-57
2021/04/23 11:04:24;;;;;;;16.33;12.23;;;;;;;;;;10316488;28;20055;-57
2021/04/23 11:09:22;;;;;;;5.97;5.38;;;;;;;;;;10314013;28;20052;-57
2021/04/23 11:14:21;;;;;;;5.88;5.35;;;;;;;;;;10315931;28;20521;-58
2021/04/23 11:19:32;;;;;;;8.48;7.47;;;;;;;;;;10315005;28;20461;-56
2021/04/23 11:24:29;;;;;;;9.70;6.78;;;;;;;;;;10315451;28;20045;-56
2021/04/23 11:29:28;;;;;;;7.63;6.28;;;;;;;;;;10315297;28;20083;-57
2021/04/23 11:34:30;;;;;;;7.18;6.00;;;;;;;;;;10315255;28;20047;-58
2021/04/23 11:39:29;;;;;;;5.75;5.25;;;;;;;;;;10315657;28;20560;-57
2021/04/23 11:44:40;;;;;;;6.53;5.78;;;;;;;;;;10313199;28;20529;-56
2021/04/23 11:49:38;;;;;;;9.98;7.72;;;;;;;;;;10315114;28;20087;-55
2021/04/23 11:54:37;;;;;;;7.25;6.00;;;;;;;;;;10315409;28;20037;-55
2021/04/23 11:59:35;;;;;;;4.90;4.13;;;;;;;;;;10314146;28;20068;-57
2021/04/23 12:04:40;;;;;;;9.43;4.22;;;;;;;;;;10314953;28;20048;-56
2021/04/23 12:09:37;;;;;;;17.48;10.27;;;;;;;;;;10314921;28;20045;-55
2021/04/23 12:14:45;;;;;;;7.97;6.55;;;;;;;;;;10314811;28;20041;-56
2021/04/23 12:19:43;;;;;;;4.90;4.40;;;;;;;;;;10318296;28;20083;-57
2021/04/23 12:24:41;;;;;;;9.00;6.00;;;;;;;;;;10321841;28;20047;-54
2021/04/23 12:29:39;;;;;;;8.73;6.68;;;;;;;;;;10322678;28;20418;-57
2021/04/23 12:34:36;;;;;;;8.68;7.78;;;;;;;;;;10322729;28;20072;-57
2021/04/23 12:39:35;;;;;;;6.47;4.57;;;;;;;;;;10320659;28;20048;-56
2021/04/23 12:44:34;;;;;;;6.57;5.95;;;;;;;;;;10322214;28;20041;-54
2021/04/23 12:49:32;;;;;;;11.40;7.68;;;;;;;;;;10320910;28;20076;-55
2021/04/23 12:54:30;;;;;;;7.20;4.55;;;;;;;;;;10321182;28;20055;-56
2021/04/23 12:59:42;;;;;;;11.93;5.88;;;;;;;;;;10320616;28;20080;-54
2021/04/23 13:04:40;;;;;;;5.07;4.22;;;;;;;;;;10321399;28;20778;-56
2021/04/23 13:09:37;;;;;;;5.80;3.25;;;;;;;;;;10321335;28;20040;-58
2021/04/23 13:14:39;;;;;;;5.45;3.88;;;;;;;;;;10321119;28;20045;-58
2021/04/23 13:19:38;;;;;;;6.05;3.60;;;;;;;;;;10320904;28;20085;-57
2021/04/23 13:24:35;;;;;;;6.53;5.65;;;;;;;;;;10319721;28;20098;-56
2021/04/23 13:29:38;;;;;;;13.00;6.72;;;;;;;;;;10320206;28;20084;-59
2021/04/23 13:34:50;;;;;;;9.57;6.50;;;;;;;;;;10320293;28;20063;-57
2021/04/23 13:39:59;;;;;;;9.63;8.40;;;;;;;;;;10319128;28;20450;-56
2021/04/23 13:45:06;;;;;;;7.80;6.35;;;;;;;;;;10320115;28;20067;-55
2021/04/23 13:50:09;;;;;;;17.40;12.35;;;;;;;;;;10319847;28;20045;-56
2021/04/23 13:55:08;;;;;;;6.88;5.47;;;;;;;;;;10319801;28;20426;-58
2021/04/23 14:00:07;;;;;;;10.00;6.55;;;;;;;;;;10318450;28;20151;-59
2021/04/23 14:05:06;;;;;;;13.02;5.82;;;;;;;;;;10319322;28;20095;-57
2021/04/23 14:10:04;;;;;;;6.00;4.32;;;;;;;;;;10319091;28;20382;-58
2021/04/23 14:15:02;;;;;;;16.02;13.45;;;;;;;;;;10317761;28;20044;-56
2021/04/23 14:20:00;;;;;;;10.65;6.93;;;;;;;;;;10318339;28;20084;-57
2021/04/23 14:24:57;;;;;;;6.90;5.72;;;;;;;;;;10318446;28;20044;-57
2021/04/23 14:29:54;;;;;;;5.78;4.85;;;;;;;;;;10318017;28;20056;-57
2021/04/23 14:34:55;;;;;;;7.53;4.30;;;;;;;;;;10317729;28;20549;-55
2021/04/23 14:39:52;;;;;;;8.00;5.53;;;;;;;;;;10318402;28;20079;-57
2021/04/23 14:44:50;;;;;;;11.90;8.68;;;;;;;;;;10318331;28;20048;-57
2021/04/23 14:49:47;;;;;;;6.75;4.25;;;;;;;;;;10318737;28;20409;-58
2021/04/23 14:54:46;;;;;;;10.63;4.90;;;;;;;;;;10316947;28;20048;-54
2021/04/23 14:59:43;;;;;;;10.50;7.75;;;;;;;;;;10316959;28;20087;-56
2021/04/23 15:04:40;;;;;;;12.35;8.45;;;;;;;;;;10316405;28;20048;-56
2021/04/23 15:09:56;;;;;;;8.80;6.87;;;;;;;;;;10318093;28;20076;-55
2021/04/23 15:14:53;;;;;;;14.73;5.50;;;;;;;;;;10317917;28;20712;-55
2021/04/23 15:19:50;;;;;;;7.50;6.78;;;;;;;;;;10317488;28;20083;-56
2021/04/23 15:24:48;;;;;;;7.13;4.57;;;;;;;;;;10317667;28;20083;-56
2021/04/23 15:29:46;;;;;;;8.30;5.50;;;;;;;;;;10316495;28;20498;-56
2021/04/23 15:34:44;;;;;;;11.25;7.00;;;;;;;;;;10307042;28;20064;-56
2021/04/23 15:39:42;;;;;;;8.93;4.20;;;;;;;;;;10307386;28;20072;-57
2021/04/23 15:44:39;;;;;;;5.82;4.07;;;;;;;;;;10308601;28;20107;-56
2021/04/23 15:49:38;;;;;;;5.35;3.90;;;;;;;;;;10312856;28;20041;-55
2021/04/23 15:54:35;;;;;;;5.97;4.43;;;;;;;;;;10314323;28;20103;-56
2021/04/23 15:59:33;;;;;;;16.33;8.63;;;;;;;;;;10313944;28;20088;-56
2021/04/23 16:04:31;;;;;;;26.98;16.98;;;;;;;;;;10314831;28;20040;-57
2021/04/23 16:09:31;;;;;;;15.57;9.63;;;;;;;;;;10314591;28;20076;-55
2021/04/23 16:14:28;;;;;;;6.82;4.38;;;;;;;;;;10321912;28;20064;-55
2021/04/23 16:19:25;;;;;;;6.05;3.63;;;;;;;;;;10325522;28;20477;-58
2021/04/23 16:24:23;;;;;;;5.10;3.22;;;;;;;;;;10316178;28;20482;-55
2021/04/23 16:29:21;;;;;;;8.80;3.65;;;;;;;;;;10315934;28;20044;-55
2021/04/23 16:34:19;;;;;;;8.27;3.92;;;;;;;;;;10316104;28;20087;-55
2021/04/23 16:39:16;;;;;;;4.57;3.47;;;;;;;;;;10315878;28;20076;-57
2021/04/23 16:44:13;;;;;;;5.05;3.83;;;;;;;;;;10315971;28;20417;-58
2021/04/23 16:49:12;;;;;;;7.30;3.80;;;;;;;;;;10322378;28;20068;-57
2021/04/23 16:54:09;;;;;;;12.57;5.60;;;;;;;;;;10315570;28;20418;-55
2021/04/23 16:59:07;;;;;;;13.38;8.60;;;;;;;;;;10314616;28;20092;-56
2021/04/23 17:04:04;;;;;;;22.67;14.30;;;;;;;;;;10315923;28;20049;-56
2021/04/23 17:09:07;;;;;;;37.03;22.60;;;;;;;;;;10330964;28;20524;-58
2021/04/23 17:14:04;;;;;;;10.85;5.43;;;;;;;;;;10322554;28;20036;-54
2021/04/23 17:19:02;;;;;;;7.32;4.57;;;;;;;;;;10321283;28;20076;-55
2021/04/23 17:24:00;;;;;;;10.63;4.97;;;;;;;;;;10322140;28;20047;-50
2021/04/23 17:28:59;;;;;;;8.65;4.38;;;;;;;;;;10324367;28;20387;-58
2021/04/23 17:33:56;;;;;;;11.27;6.10;;;;;;;;;;10321713;28;20052;-56
2021/04/23 17:38:54;;;;;;;13.00;7.30;;;;;;;;;;10321859;28;20075;-54
2021/04/23 17:43:51;;;;;;;9.57;6.70;;;;;;;;;;10321469;28;20048;-57
2021/04/23 17:48:50;;;;;;;14.38;7.28;;;;;;;;;;10321083;28;20060;-58
2021/04/23 17:53:48;;;;;;;10.55;7.95;;;;;;;;;;10321026;28;20045;-58
2021/04/23 17:58:45;;;;;;;7.32;5.15;;;;;;;;;;10319608;28;20076;-58
2021/04/23 18:03:44;;;;;;;8.38;5.97;;;;;;;;;;10320544;28;20532;-59
2021/04/23 18:08:43;;;;;;;9.55;5.18;;;;;;;;;;10319724;28;20083;-56
2021/04/23 18:13:40;;;;;;;8.68;5.90;;;;;;;;;;10320241;28;20082;-56
2021/04/23 18:18:38;;;;;;;13.52;6.18;;;;;;;;;;10322068;28;20079;-57
2021/04/23 18:23:35;;;;;;;13.25;6.88;;;;;;;;;;10319915;28;20047;-57
2021/04/23 18:28:34;;;;;;;14.35;9.90;;;;;;;;;;10319501;28;20036;-56
2021/04/23 18:33:33;;;;;;;8.52;4.60;;;;;;;;;;10319259;28;20501;-58
2021/04/23 18:38:31;;;;;;;10.15;6.22;;;;;;;;;;10318567;28;20056;-57
2021/04/23 18:43:29;;;;;;;11.73;6.93;;;;;;;;;;10318867;28;20063;-58
2021/04/23 18:48:28;;;;;;;10.25;7.15;;;;;;;;;;10326097;28;20044;-56
2021/04/23 18:53:26;;;;;;;11.90;6.95;;;;;;;;;;10322445;28;20036;-58
2021/04/23 18:58:24;;;;;;;8.77;4.93;;;;;;;;;;10322715;28;20079;-56
2021/04/23 19:03:21;;;;;;;9.63;6.15;;;;;;;;;;10318125;28;20443;-57
2021/04/23 19:08:20;;;;;;;9.52;5.97;;;;;;;;;;10317691;28;20048;-54
2021/04/23 19:13:18;;;;;;;10.85;4.47;;;;;;;;;;10317088;28;20056;-54
2021/04/23 19:18:16;;;;;;;14.18;5.63;;;;;;;;;;10317409;28;20078;-56
2021/04/23 19:23:14;;;;;;;8.63;5.07;;;;;;;;;;10317477;28;20079;-58
2021/04/23 19:28:16;;;;;;;8.73;4.65;;;;;;;;;;10316430;28;20051;-57
2021/04/23 19:33:13;;;;;;;10.27;5.38;;;;;;;;;;10317349;28;20064;-56
2021/04/23 19:38:10;;;;;;;12.27;7.57;;;;;;;;;;10316833;28;20075;-56
2021/04/23 19:43:08;;;;;;;16.35;12.85;;;;;;;;;;10316836;28;20080;-56
2021/04/23 19:48:07;;;;;;;21.17;13.23;;;;;;;;;;10316639;28;20561;-56
2021/04/23 19:53:04;;;;;;;12.90;8.02;;;;;;;;;;10316613;28;20087;-56
2021/04/23 19:58:02;;;;;;;15.68;7.95;;;;;;;;;;10334574;28;20072;-56
2021/04/23 20:03:00;;;;;;;11.63;9.20;;;;;;;;;;10333482;28;20090;-49
2021/04/23 20:07:58;;;;;;;13.13;8.93;;;;;;;;;;10329869;28;20048;-53
2021/04/23 20:12:55;;;;;;;12.32;8.82;;;;;;;;;;10316152;28;20091;-56
2021/04/23 20:17:53;;;;;;;10.25;7.60;;;;;;;;;;10316474;28;20079;-57
2021/04/23 20:22:50;;;;;;;11.07;7.35;;;;;;;;;;10316185;28;20072;-56
2021/04/23 20:27:48;;;;;;;20.40;11.15;;;;;;;;;;10316005;28;20521;-56
2021/04/23 20:32:46;;;;;;;10.75;8.70;;;;;;;;;;10315889;28;20079;-57
2021/04/23 20:37:44;;;;;;;9.73;8.75;;;;;;;;;;10335753;28;20048;-56
2021/04/23 20:42:42;;;;;;;8.93;7.80;;;;;;;;;;10361825;28;20113;-56
2021/04/23 20:47:40;;;;;;;9.38;7.72;;;;;;;;;;10349710;28;20076;-53
2021/04/23 20:52:37;;;;;;;10.13;8.73;;;;;;;;;;10341129;28;20072;-55
2021/04/23 20:57:35;;;;;;;24.45;13.93;;;;;;;;;;10335720;28;20056;-55
2021/04/23 21:02:33;;;;;;;14.05;9.65;;;;;;;;;;10356689;28;20076;-56
2021/04/23 21:07:31;;;;;;;10.05;8.68;;;;;;;;;;10336152;28;20095;-57
2021/04/23 21:12:28;;;;;;;9.93;8.43;;;;;;;;;;10336020;28;20071;-54
2021/04/23 21:17:26;;;;;;;8.32;7.50;;;;;;;;;;10342510;28;20066;-56
2021/04/23 21:22:23;;;;;;;9.13;8.13;;;;;;;;;;10342164;28;20079;-56
2021/04/23 21:27:21;;;;;;;10.40;8.07;;;;;;;;;;10340239;28;20063;-58
2021/04/23 21:32:19;;;;;;;8.43;7.63;;;;;;;;;;10339879;28;20698;-56
2021/04/23 21:37:16;;;;;;;8.85;8.05;;;;;;;;;;10348137;28;20082;-58
2021/04/23 21:42:13;;;;;;;8.75;7.85;;;;;;;;;;10359382;28;20071;-56
2021/04/23 21:47:11;;;;;;;9.90;7.85;;;;;;;;;;10358535;28;20095;-56
2021/04/23 21:52:09;;;;;;;10.13;9.20;;;;;;;;;;10351495;28;20064;-55
2021/04/23 21:57:06;;;;;;;10.98;7.00;;;;;;;;;;10342972;28;20543;-57
2021/04/23 22:02:03;;;;;;;11.90;8.10;;;;;;;;;;10353455;28;20552;-56
2021/04/23 22:07:02;;;;;;;10.55;9.43;;;;;;;;;;10348927;28;20086;-58
2021/04/23 22:11:59;;;;;;;14.02;8.88;;;;;;;;;;10345525;28;20091;-53
2021/04/23 22:16:56;;;;;;;9.20;6.82;;;;;;;;;;10357598;28;20083;-54
2021/04/23 22:21:54;;;;;;;7.85;6.60;;;;;;;;;;10356433;28;20462;-56
2021/04/23 22:26:52;;;;;;;8.23;7.32;;;;;;;;;;10358034;28;20067;-55
2021/04/23 22:31:49;;;;;;;8.13;7.10;;;;;;;;;;10345917;28;20528;-54
2021/04/23 22:36:47;;;;;;;10.77;7.72;;;;;;;;;;10353497;28;20067;-57
2021/04/23 22:41:44;;;;;;;10.27;7.05;;;;;;;;;;10353358;28;20074;-54
2021/04/23 22:46:43;;;;;;;8.80;7.35;;;;;;;;;;10355842;28;20086;-57
2021/04/23 22:51:40;;;;;;;11.27;8.38;;;;;;;;;;10352333;28;20078;-56
2021/04/23 22:56:38;;;;;;;11.88;7.45;;;;;;;;;;10342952;28;20494;-56
2021/04/23 23:01:35;;;;;;;14.27;7.32;;;;;;;;;;10312903;28;20080;-57
2021/04/23 23:06:33;;;;;;;9.10;6.95;;;;;;;;;;10317766;28;20088;-56
2021/04/23 23:11:31;;;;;;;14.35;7.15;;;;;;;;;;10318019;28;20076;-57
2021/04/23 23:16:28;;;;;;;14.75;7.75;;;;;;;;;;10317965;28;20049;-58
2021/04/23 23:21:26;;;;;;;10.82;6.32;;;;;;;;;;10317679;28;20091;-58
2021/04/23 23:26:24;;;;;;;9.50;6.90;;;;;;;;;;10317092;28;20051;-57
2021/04/23 23:31:21;;;;;;;11.52;6.25;;;;;;;;;;10317088;28;20055;-56
2021/04/23 23:36:19;;;;;;;8.65;6.63;;;;;;;;;;10316925;28;20051;-57
2021/04/23 23:41:16;;;;;;;10.23;5.90;;;;;;;;;;10316532;28;20087;-56
2021/04/23 23:46:14;;;;;;;10.43;6.85;;;;;;;;;;10316434;28;20076;-57
2021/04/23 23:51:12;;;;;;;9.90;6.85;;;;;;;;;;10316928;28;20052;-57
2021/04/23 23:56:09;;;;;;;13.50;9.23;;;;;;;;;;10316022;28;20052;-55
